DRRN/NIM METAR and TAF weather

Enter ICAO airport designator
Station Type Date Time Source
DRRN METAR 2019/12/11 15:00 UTC NOAA

DRRN 111500Z 09010KT CAVOK 36/M07 Q1009 NOSIG


Station Type Date Time Source
DRRN Decoded METAR 2019/12/11 15:00 UTC NOAA

Niamey-Aero, Niger (DRRN) 13-29N 002-10E 227M
Dec 11, 2019 - 10:00 AM EST / 2019.12.11 1500 UTC
Wind: from the E (090 degrees) at 12 MPH (10 KT):0
Visibility: greater than 7 mile(s):0
Temperature: 96 F (36 C)
Dew Point: 19 F (-7 C)
Relative Humidity: 6%
Pressure (altimeter): 29.80 in. Hg (1009 hPa)
ob: DRRN 111500Z 09010KT CAVOK 36/M07 Q1009 NOSIG
cycle: 15

Station Type Date Time Source
DRRN TAF 2019/12/11 12:21 UTC NOAA

TAF DRRN 111100Z 1112/1218 08008KT 8000 NSC
TEMPO 1117/1120 4500 DU
TEMPO 1206/1210 4000 DU

Example: see airport list